Time,TemperatureF,DewpointF,PressureIn,WindDirection,WindDirectionDegrees,WindSpeedMPH,WindSpeedGustMPH,Humidity,HourlyPrecipIn,Conditions,Clouds,dailyrainin,SoftwareType,DateUTC
2013-12-24 00:01:00,-4.0,-11.0,-100.00,NW,320,6.0,9.0,73,-99.99,,,-99.99,,2013-12-24 06:01:00,
2013-12-24 00:22:00,-4.0,-11.0,-100.00,NW,320,6.0,9.0,73,-99.99,,,-99.99,,2013-12-24 06:22:00,
2013-12-24 00:33:00,-4.0,-11.0,-100.00,NW,320,6.0,9.0,73,-99.99,,,-99.99,,2013-12-24 06:33:00,
2013-12-24 00:42:00,-4.0,-11.0,-100.00,NW,320,6.0,9.0,73,-99.99,,,-99.99,,2013-12-24 06:42:00,
2013-12-24 00:52:00,-4.0,-11.0,-100.00,NW,320,6.0,9.0,73,-99.99,,,-99.99,,2013-12-24 06:52:00,
2013-12-24 01:01:00,-5.0,-12.0,-100.00,NW,320,4.0,7.0,73,-99.99,,,-99.99,,2013-12-24 07:01:00,
2013-12-24 01:22:00,-5.0,-12.0,-100.00,NW,320,4.0,7.0,73,-99.99,,,-99.99,,2013-12-24 07:22:00,
2013-12-24 01:32:00,-5.0,-12.0,-100.00,NW,320,4.0,7.0,73,-99.99,,,-99.99,,2013-12-24 07:32:00,
2013-12-24 01:42:00,-5.0,-12.0,-100.00,NW,320,4.0,7.0,73,-99.99,,,-99.99,,2013-12-24 07:42:00,
2013-12-24 01:52:00,-5.0,-12.0,-100.00,NW,320,4.0,7.0,73,-99.99,,,-99.99,,2013-12-24 07:52:00,
2013-12-24 02:02:00,-6.0,-12.0,-100.00,NW,310,6.0,9.0,74,-99.99,,,-99.99,,2013-12-24 08:02:00,
2013-12-24 02:22:00,-6.0,-12.0,-100.00,NW,310,6.0,9.0,74,-99.99,,,-99.99,,2013-12-24 08:22:00,
2013-12-24 02:32:00,-6.0,-12.0,-100.00,NW,310,6.0,9.0,74,-99.99,,,-99.99,,2013-12-24 08:32:00,
2013-12-24 02:42:00,-6.0,-12.0,-100.00,NW,310,6.0,9.0,74,-99.99,,,-99.99,,2013-12-24 08:42:00,
2013-12-24 02:52:00,-6.0,-12.0,-100.00,NW,310,6.0,9.0,74,-99.99,,,-99.99,,2013-12-24 08:52:00,
2013-12-24 03:01:00,-5.0,-12.0,-100.00,NNW,330,8.0,12.0,74,-99.99,,,-99.99,,2013-12-24 09:01:00,
2013-12-24 03:22:00,-5.0,-12.0,-100.00,NNW,330,8.0,12.0,74,-99.99,,,-99.99,,2013-12-24 09:22:00,
2013-12-24 03:33:00,-5.0,-12.0,-100.00,NNW,330,8.0,12.0,74,-99.99,,,-99.99,,2013-12-24 09:33:00,
2013-12-24 03:43:00,-5.0,-12.0,-100.00,NNW,330,8.0,12.0,74,-99.99,,,-99.99,,2013-12-24 09:43:00,
2013-12-24 03:53:00,-5.0,-12.0,-100.00,NNW,330,8.0,12.0,74,-99.99,,,-99.99,,2013-12-24 09:53:00,
2013-12-24 04:01:00,-6.0,-12.0,-100.00,NW,310,6.0,9.0,74,-99.99,,,-99.99,,2013-12-24 10:01:00,
2013-12-24 04:23:00,-6.0,-12.0,-100.00,NW,310,6.0,9.0,74,-99.99,,,-99.99,,2013-12-24 10:23:00,
2013-12-24 04:33:00,-6.0,-12.0,-100.00,NW,310,6.0,9.0,74,-99.99,,,-99.99,,2013-12-24 10:33:00,
2013-12-24 04:43:00,-6.0,-12.0,-100.00,NW,310,6.0,9.0,74,-99.99,,,-99.99,,2013-12-24 10:43:00,
2013-12-24 04:53:00,-6.0,-12.0,-100.00,NW,310,6.0,9.0,74,-99.99,,,-99.99,,2013-12-24 10:53:00,
2013-12-24 05:01:00,-7.0,-13.0,-100.00,NW,310,2.0,4.0,74,-99.99,,,-99.99,,2013-12-24 11:01:00,
2013-12-24 05:22:00,-7.0,-13.0,-100.00,NW,310,2.0,4.0,74,-99.99,,,-99.99,,2013-12-24 11:22:00,
2013-12-24 05:33:00,-7.0,-13.0,-100.00,NW,310,2.0,4.0,74,-99.99,,,-99.99,,2013-12-24 11:33:00,
2013-12-24 05:42:00,-7.0,-13.0,-100.00,NW,310,2.0,4.0,74,-99.99,,,-99.99,,2013-12-24 11:42:00,
2013-12-24 05:52:00,-7.0,-13.0,-100.00,NW,310,2.0,4.0,74,-99.99,,,-99.99,,2013-12-24 11:52:00,
2013-12-24 06:02:00,-11.0,-17.0,-100.00,WSW,245,1.0,2.0,74,-99.99,,,-99.99,,2013-12-24 12:02:00,
2013-12-24 06:22:00,-11.0,-17.0,-100.00,WSW,245,1.0,2.0,74,-99.99,,,-99.99,,2013-12-24 12:22:00,
2013-12-24 06:32:00,-11.0,-17.0,-100.00,WSW,245,1.0,2.0,74,-99.99,,,-99.99,,2013-12-24 12:32:00,
2013-12-24 06:42:00,-11.0,-17.0,-100.00,WSW,245,1.0,2.0,74,-99.99,,,-99.99,,2013-12-24 12:42:00,
2013-12-24 06:52:00,-11.0,-17.0,-100.00,WSW,245,1.0,2.0,74,-99.99,,,-99.99,,2013-12-24 12:52:00,
2013-12-24 07:01:00,-13.0,-19.0,-100.00,NW,315,0.0,2.0,74,-99.99,,,-99.99,,2013-12-24 13:01:00,
2013-12-24 07:22:00,-13.0,-19.0,-100.00,NW,315,0.0,2.0,74,-99.99,,,-99.99,,2013-12-24 13:22:00,
2013-12-24 07:33:00,-13.0,-19.0,-100.00,NW,315,0.0,2.0,74,-99.99,,,-99.99,,2013-12-24 13:33:00,
2013-12-24 07:42:00,-13.0,-19.0,-100.00,NW,315,0.0,2.0,74,-99.99,,,-99.99,,2013-12-24 13:42:00,
2013-12-24 07:52:00,-13.0,-19.0,-100.00,NW,315,0.0,2.0,74,-99.99,,,-99.99,,2013-12-24 13:52:00,
2013-12-24 08:01:00,-11.0,-17.0,-100.00,WNW,300,3.0,4.0,74,-99.99,,,-99.99,,2013-12-24 14:01:00,
2013-12-24 08:22:00,-11.0,-17.0,-100.00,WNW,300,3.0,4.0,74,-99.99,,,-99.99,,2013-12-24 14:22:00,
2013-12-24 08:33:00,-11.0,-17.0,-100.00,WNW,300,3.0,4.0,74,-99.99,,,-99.99,,2013-12-24 14:33:00,
2013-12-24 08:42:00,-11.0,-17.0,-100.00,WNW,300,3.0,4.0,74,-99.99,,,-99.99,,2013-12-24 14:42:00,
2013-12-24 08:52:00,-11.0,-17.0,-100.00,WNW,300,3.0,4.0,74,-99.99,,,-99.99,,2013-12-24 14:52:00,
2013-12-24 09:01:00,-5.0,-11.0,-100.00,NNW,340,0.0,1.0,72,-99.99,,,-99.99,,2013-12-24 15:01:00,
2013-12-24 09:22:00,-5.0,-11.0,-100.00,NNW,340,0.0,1.0,72,-99.99,,,-99.99,,2013-12-24 15:22:00,
2013-12-24 09:33:00,-5.0,-11.0,-100.00,NNW,340,0.0,1.0,72,-99.99,,,-99.99,,2013-12-24 15:33:00,
2013-12-24 09:43:00,-5.0,-11.0,-100.00,NNW,340,0.0,1.0,72,-99.99,,,-99.99,,2013-12-24 15:43:00,
2013-12-24 09:53:00,-5.0,-11.0,-100.00,NNW,340,0.0,1.0,72,-99.99,,,-99.99,,2013-12-24 15:53:00,
2013-12-24 11:02:00,8.0,-6.0,-100.00,South,170,1.0,4.0,53,-99.99,,,-99.99,,2013-12-24 17:02:00,
2013-12-24 11:42:00,8.0,-6.0,-100.00,South,170,1.0,4.0,53,-99.99,,,-99.99,,2013-12-24 17:42:00,
2013-12-24 11:52:00,8.0,-6.0,-100.00,South,170,1.0,4.0,53,-99.99,,,-99.99,,2013-12-24 17:52:00,
2013-12-24 12:22:00,8.0,-3.0,-100.00,SSE,165,3.0,6.0,60,-99.99,,,-99.99,,2013-12-24 18:22:00,
2013-12-24 12:32:00,8.0,-3.0,-100.00,SSE,165,3.0,6.0,60,-99.99,,,-99.99,,2013-12-24 18:32:00,
2013-12-24 12:42:00,8.0,-3.0,-100.00,SSE,165,3.0,6.0,60,-99.99,,,-99.99,,2013-12-24 18:42:00,
2013-12-24 12:52:00,8.0,-3.0,-100.00,SSE,165,3.0,6.0,60,-99.99,,,-99.99,,2013-12-24 18:52:00,
2013-12-24 13:01:00,8.0,-3.0,-100.00,SSE,165,3.0,6.0,60,-99.99,,,-99.99,,2013-12-24 19:01:00,
2013-12-24 13:22:00,12.0,0.0,-100.00,SSE,165,3.0,6.0,60,-99.99,,,-99.99,,2013-12-24 19:22:00,
2013-12-24 13:32:00,12.0,0.0,-100.00,SSE,165,3.0,6.0,60,-99.99,,,-99.99,,2013-12-24 19:32:00,
2013-12-24 13:42:00,12.0,0.0,-100.00,SSE,165,3.0,6.0,60,-99.99,,,-99.99,,2013-12-24 19:42:00,
2013-12-24 13:52:00,12.0,0.0,-100.00,SSE,165,3.0,6.0,60,-99.99,,,-99.99,,2013-12-24 19:52:00,
2013-12-24 14:00:00,12.0,1.0,-100.00,SE,125,4.0,9.0,63,-99.99,,,-99.99,,2013-12-24 20:00:00,
2013-12-24 14:22:00,12.0,1.0,-100.00,SE,125,4.0,9.0,63,-99.99,,,-99.99,,2013-12-24 20:22:00,
2013-12-24 14:32:00,12.0,1.0,-100.00,SE,125,4.0,9.0,63,-99.99,,,-99.99,,2013-12-24 20:32:00,
2013-12-24 14:42:00,12.0,1.0,-100.00,SE,125,4.0,9.0,63,-99.99,,,-99.99,,2013-12-24 20:42:00,
2013-12-24 14:52:00,12.0,1.0,-100.00,SE,125,4.0,9.0,63,-99.99,,,-99.99,,2013-12-24 20:52:00,
2013-12-24 15:02:00,9.0,0.0,-100.00,SSE,150,3.0,7.0,65,-99.99,,,-99.99,,2013-12-24 21:02:00,
2013-12-24 15:22:00,9.0,0.0,-100.00,SSE,150,3.0,7.0,65,-99.99,,,-99.99,,2013-12-24 21:22:00,
2013-12-24 15:34:00,9.0,0.0,-100.00,SSE,150,3.0,7.0,65,-99.99,,,-99.99,,2013-12-24 21:34:00,
2013-12-24 15:43:00,9.0,0.0,-100.00,SSE,150,3.0,7.0,65,-99.99,,,-99.99,,2013-12-24 21:43:00,
2013-12-24 15:53:00,9.0,0.0,-100.00,SSE,150,3.0,7.0,65,-99.99,,,-99.99,,2013-12-24 21:53:00,
2013-12-24 16:01:00,9.0,0.0,-100.00,SSE,165,4.0,6.0,69,-99.99,,,-99.99,,2013-12-24 22:01:00,
2013-12-24 16:23:00,9.0,0.0,-100.00,SSE,165,4.0,6.0,69,-99.99,,,-99.99,,2013-12-24 22:23:00,
2013-12-24 16:33:00,9.0,0.0,-100.00,SSE,165,4.0,6.0,69,-99.99,,,-99.99,,2013-12-24 22:33:00,
2013-12-24 16:43:00,9.0,0.0,-100.00,SSE,165,4.0,6.0,69,-99.99,,,-99.99,,2013-12-24 22:43:00,
2013-12-24 16:53:00,9.0,0.0,-100.00,SSE,165,4.0,6.0,69,-99.99,,,-99.99,,2013-12-24 22:53:00,
2013-12-24 17:02:00,6.0,-1.0,-100.00,SE,125,4.0,7.0,72,-99.99,,,-99.99,,2013-12-24 23:02:00,
2013-12-24 17:22:00,6.0,-1.0,-100.00,SE,125,4.0,7.0,72,-99.99,,,-99.99,,2013-12-24 23:22:00,
2013-12-24 17:33:00,6.0,-1.0,-100.00,SE,125,4.0,7.0,72,-99.99,,,-99.99,,2013-12-24 23:33:00,
2013-12-24 17:42:00,6.0,-1.0,-100.00,SE,125,4.0,7.0,72,-99.99,,,-99.99,,2013-12-24 23:42:00,
2013-12-24 17:53:00,6.0,-1.0,-100.00,SE,125,4.0,7.0,72,-99.99,,,-99.99,,2013-12-24 23:53:00,
2013-12-24 18:01:00,6.0,-2.0,-100.00,SE,145,4.0,7.0,71,-99.99,,,-99.99,,2013-12-25 00:01:00,
2013-12-24 18:22:00,6.0,-2.0,-100.00,SE,145,4.0,7.0,71,-99.99,,,-99.99,,2013-12-25 00:22:00,
2013-12-24 18:32:00,6.0,-2.0,-100.00,SE,145,4.0,7.0,71,-99.99,,,-99.99,,2013-12-25 00:32:00,
2013-12-24 18:42:00,6.0,-2.0,-100.00,SE,145,4.0,7.0,71,-99.99,,,-99.99,,2013-12-25 00:42:00,
2013-12-24 18:52:00,6.0,-2.0,-100.00,SE,145,4.0,7.0,71,-99.99,,,-99.99,,2013-12-25 00:52:00,
2013-12-24 19:01:00,5.0,-4.0,-100.00,SSE,160,5.0,12.0,68,-99.99,,,-99.99,,2013-12-25 01:01:00,
2013-12-24 19:22:00,5.0,-4.0,-100.00,SSE,160,5.0,12.0,68,-99.99,,,-99.99,,2013-12-25 01:22:00,
2013-12-24 19:32:00,5.0,-4.0,-100.00,SSE,160,5.0,12.0,68,-99.99,,,-99.99,,2013-12-25 01:32:00,
2013-12-24 19:42:00,5.0,-4.0,-100.00,SSE,160,5.0,12.0,68,-99.99,,,-99.99,,2013-12-25 01:42:00,
2013-12-24 19:52:00,5.0,-4.0,-100.00,SSE,160,5.0,12.0,68,-99.99,,,-99.99,,2013-12-25 01:52:00,
2013-12-24 20:02:00,4.0,-4.0,-100.00,SE,140,6.0,12.0,69,-99.99,,,-99.99,,2013-12-25 02:02:00,
2013-12-24 20:22:00,4.0,-4.0,-100.00,SE,140,6.0,12.0,69,-99.99,,,-99.99,,2013-12-25 02:22:00,
2013-12-24 20:32:00,4.0,-4.0,-100.00,SE,140,6.0,12.0,69,-99.99,,,-99.99,,2013-12-25 02:32:00,
2013-12-24 20:42:00,4.0,-4.0,-100.00,SE,140,6.0,12.0,69,-99.99,,,-99.99,,2013-12-25 02:42:00,
2013-12-24 20:53:00,4.0,-4.0,-100.00,SE,140,6.0,12.0,69,-99.99,,,-99.99,,2013-12-25 02:53:00,
2013-12-24 21:00:00,4.0,-2.0,-100.00,SE,140,2.0,9.0,75,-99.99,,,-99.99,,2013-12-25 03:00:00,
2013-12-24 21:22:00,4.0,-2.0,-100.00,SE,140,2.0,9.0,75,-99.99,,,-99.99,,2013-12-25 03:22:00,
2013-12-24 21:33:00,4.0,-2.0,-100.00,SE,140,2.0,9.0,75,-99.99,,,-99.99,,2013-12-25 03:33:00,
2013-12-24 21:43:00,4.0,-2.0,-100.00,SE,140,2.0,9.0,75,-99.99,,,-99.99,,2013-12-25 03:43:00,
2013-12-24 21:53:00,4.0,-2.0,-100.00,SE,140,2.0,9.0,75,-99.99,,,-99.99,,2013-12-25 03:53:00,
2013-12-24 22:02:00,6.0,0.0,-100.00,SE,130,5.0,8.0,78,-99.99,,,-99.99,,2013-12-25 04:02:00,
2013-12-24 22:23:00,6.0,0.0,-100.00,SE,130,5.0,8.0,78,-99.99,,,-99.99,,2013-12-25 04:23:00,
2013-12-24 22:33:00,6.0,0.0,-100.00,SE,130,5.0,8.0,78,-99.99,,,-99.99,,2013-12-25 04:33:00,
2013-12-24 22:43:00,6.0,0.0,-100.00,SE,130,5.0,8.0,78,-99.99,,,-99.99,,2013-12-25 04:43:00,
2013-12-24 22:53:00,6.0,0.0,-100.00,SE,130,5.0,8.0,78,-99.99,,,-99.99,,2013-12-25 04:53:00,
2013-12-24 23:01:00,7.0,1.0,-100.00,SSE,150,5.0,9.0,79,-99.99,,,-99.99,,2013-12-25 05:01:00,
2013-12-24 23:22:00,7.0,1.0,-100.00,SSE,150,5.0,9.0,79,-99.99,,,-99.99,,2013-12-25 05:22:00,
2013-12-24 23:33:00,7.0,1.0,-100.00,SSE,150,5.0,9.0,79,-99.99,,,-99.99,,2013-12-25 05:33:00,
2013-12-24 23:43:00,7.0,1.0,-100.00,SSE,150,5.0,9.0,79,-99.99,,,-99.99,,2013-12-25 05:43:00,
2013-12-24 23:53:00,7.0,1.0,-100.00,SSE,150,5.0,9.0,79,-99.99,,,-99.99,,2013-12-25 05:53:00,